sensor_id;sensor_type;location;lat;lon;timestamp;P1;durP1;ratioP1;P2;durP2;ratioP2
49784;SDS011;35679;38.732;-121.358;2023-04-01T00:01:35;2.92;;;2.70;;
49784;SDS011;35679;38.732;-121.358;2023-04-01T00:04:24;3.45;;;2.50;;
49784;SDS011;35679;38.732;-121.358;2023-04-01T00:07:14;2.60;;;2.40;;
49784;SDS011;35679;38.732;-121.358;2023-04-01T00:10:04;3.08;;;2.70;;
49784;SDS011;35679;38.732;-121.358;2023-04-01T00:12:58;2.47;;;2.28;;
49784;SDS011;35679;38.732;-121.358;2023-04-01T00:15:48;2.80;;;2.60;;
49784;SDS011;35679;38.732;-121.358;2023-04-01T00:18:38;2.95;;;2.75;;
49784;SDS011;35679;38.732;-121.358;2023-04-01T00:21:27;2.70;;;2.50;;
49784;SDS011;35679;38.732;-121.358;2023-04-01T00:24:17;2.75;;;2.55;;
49784;SDS011;35679;38.732;-121.358;2023-04-01T00:27:07;2.92;;;2.67;;
49784;SDS011;35679;38.732;-121.358;2023-04-01T00:29:57;2.20;;;2.10;;
49784;SDS011;35679;38.732;-121.358;2023-04-01T00:32:46;2.60;;;2.40;;
49784;SDS011;35679;38.732;-121.358;2023-04-01T00:35:35;3.00;;;2.80;;
49784;SDS011;35679;38.732;-121.358;2023-04-01T00:38:25;2.58;;;2.47;;
49784;SDS011;35679;38.732;-121.358;2023-04-01T00:41:15;3.00;;;2.80;;
49784;SDS011;35679;38.732;-121.358;2023-04-01T00:44:16;3.70;;;2.80;;
49784;SDS011;35679;38.732;-121.358;2023-04-01T00:47:09;2.80;;;2.58;;
49784;SDS011;35679;38.732;-121.358;2023-04-01T00:49:58;2.90;;;2.70;;
49784;SDS011;35679;38.732;-121.358;2023-04-01T00:52:48;2.70;;;2.60;;
49784;SDS011;35679;38.732;-121.358;2023-04-01T00:55:39;2.85;;;2.75;;
49784;SDS011;35679;38.732;-121.358;2023-04-01T00:58:33;2.65;;;2.45;;
49784;SDS011;35679;38.732;-121.358;2023-04-01T01:01:26;2.80;;;2.60;;
49784;SDS011;35679;38.732;-121.358;2023-04-01T01:04:25;2.58;;;2.47;;
49784;SDS011;35679;38.732;-121.358;2023-04-01T01:07:26;2.95;;;2.75;;
49784;SDS011;35679;38.732;-121.358;2023-04-01T01:10:52;2.95;;;2.45;;
49784;SDS011;35679;38.732;-121.358;2023-04-01T01:13:48;2.97;;;2.78;;
49784;SDS011;35679;38.732;-121.358;2023-04-01T01:16:43;2.67;;;2.47;;
49784;SDS011;35679;38.732;-121.358;2023-04-01T01:19:52;3.10;;;2.85;;
49784;SDS011;35679;38.732;-121.358;2023-04-01T01:26:44;2.80;;;2.60;;
49784;SDS011;35679;38.732;-121.358;2023-04-01T01:35:55;2.60;;;2.50;;
49784;SDS011;35679;38.732;-121.358;2023-04-01T01:41:39;2.63;;;2.53;;
49784;SDS011;35679;38.732;-121.358;2023-04-01T01:44:32;2.72;;;2.63;;
49784;SDS011;35679;38.732;-121.358;2023-04-01T01:47:24;2.75;;;2.60;;
49784;SDS011;35679;38.732;-121.358;2023-04-01T01:50:16;3.08;;;2.60;;
49784;SDS011;35679;38.732;-121.358;2023-04-01T01:53:08;2.70;;;2.60;;
49784;SDS011;35679;38.732;-121.358;2023-04-01T01:56:00;3.10;;;2.80;;
49784;SDS011;35679;38.732;-121.358;2023-04-01T01:59:03;2.70;;;2.60;;
49784;SDS011;35679;38.732;-121.358;2023-04-01T02:01:57;2.90;;;2.80;;
49784;SDS011;35679;38.732;-121.358;2023-04-01T02:04:48;2.97;;;2.63;;
49784;SDS011;35679;38.732;-121.358;2023-04-01T02:07:39;3.53;;;3.10;;
49784;SDS011;35679;38.732;-121.358;2023-04-01T02:10:36;3.55;;;2.85;;
49784;SDS011;35679;38.732;-121.358;2023-04-01T02:16:24;3.92;;;2.55;;
49784;SDS011;35679;38.732;-121.358;2023-04-01T02:19:22;3.95;;;3.10;;
49784;SDS011;35679;38.732;-121.358;2023-04-01T02:22:26;3.13;;;2.85;;
49784;SDS011;35679;38.732;-121.358;2023-04-01T02:25:25;3.42;;;2.72;;
49784;SDS011;35679;38.732;-121.358;2023-04-01T02:28:17;4.78;;;2.72;;
49784;SDS011;35679;38.732;-121.358;2023-04-01T02:31:09;6.35;;;3.20;;
49784;SDS011;35679;38.732;-121.358;2023-04-01T02:34:00;3.38;;;3.10;;
49784;SDS011;35679;38.732;-121.358;2023-04-01T02:36:50;3.78;;;2.90;;
49784;SDS011;35679;38.732;-121.358;2023-04-01T02:39:41;3.70;;;2.80;;
49784;SDS011;35679;38.732;-121.358;2023-04-01T02:42:31;3.25;;;2.90;;
49784;SDS011;35679;38.732;-121.358;2023-04-01T02:45:21;4.30;;;2.90;;
49784;SDS011;35679;38.732;-121.358;2023-04-01T02:48:10;3.03;;;2.60;;
49784;SDS011;35679;38.732;-121.358;2023-04-01T02:51:01;3.20;;;2.90;;
49784;SDS011;35679;38.732;-121.358;2023-04-01T02:53:50;5.53;;;2.95;;
49784;SDS011;35679;38.732;-121.358;2023-04-01T02:56:39;2.63;;;2.42;;
49784;SDS011;35679;38.732;-121.358;2023-04-01T02:59:29;4.13;;;2.92;;
49784;SDS011;35679;38.732;-121.358;2023-04-01T03:02:18;2.88;;;2.60;;
49784;SDS011;35679;38.732;-121.358;2023-04-01T03:05:08;3.08;;;2.70;;
49784;SDS011;35679;38.732;-121.358;2023-04-01T03:07:58;3.03;;;2.83;;
49784;SDS011;35679;38.732;-121.358;2023-04-01T03:10:48;2.75;;;2.65;;
49784;SDS011;35679;38.732;-121.358;2023-04-01T03:13:37;3.65;;;3.10;;
49784;SDS011;35679;38.732;-121.358;2023-04-01T03:16:28;2.83;;;2.67;;
49784;SDS011;35679;38.732;-121.358;2023-04-01T03:19:18;3.20;;;3.00;;
49784;SDS011;35679;38.732;-121.358;2023-04-01T03:22:08;3.00;;;2.90;;
49784;SDS011;35679;38.732;-121.358;2023-04-01T03:24:59;3.00;;;2.75;;
49784;SDS011;35679;38.732;-121.358;2023-04-01T03:27:49;2.97;;;2.83;;
49784;SDS011;35679;38.732;-121.358;2023-04-01T03:30:38;3.17;;;2.90;;
49784;SDS011;35679;38.732;-121.358;2023-04-01T03:33:28;3.13;;;2.90;;
49784;SDS011;35679;38.732;-121.358;2023-04-01T03:36:18;3.85;;;2.88;;
49784;SDS011;35679;38.732;-121.358;2023-04-01T03:39:07;3.58;;;3.28;;
49784;SDS011;35679;38.732;-121.358;2023-04-01T03:42:00;3.22;;;3.03;;
49784;SDS011;35679;38.732;-121.358;2023-04-01T03:44:50;3.20;;;3.00;;
49784;SDS011;35679;38.732;-121.358;2023-04-01T03:47:39;4.28;;;3.25;;
49784;SDS011;35679;38.732;-121.358;2023-04-01T03:50:29;2.70;;;2.60;;
49784;SDS011;35679;38.732;-121.358;2023-04-01T03:53:18;3.38;;;3.08;;
49784;SDS011;35679;38.732;-121.358;2023-04-01T03:56:09;2.88;;;2.67;;
49784;SDS011;35679;38.732;-121.358;2023-04-01T03:59:01;3.45;;;3.17;;
49784;SDS011;35679;38.732;-121.358;2023-04-01T04:01:52;2.97;;;2.63;;
49784;SDS011;35679;38.732;-121.358;2023-04-01T04:04:41;2.60;;;2.50;;
49784;SDS011;35679;38.732;-121.358;2023-04-01T04:07:31;3.20;;;3.00;;
49784;SDS011;35679;38.732;-121.358;2023-04-01T04:10:26;3.05;;;2.85;;
49784;SDS011;35679;38.732;-121.358;2023-04-01T04:13:17;4.90;;;3.00;;
49784;SDS011;35679;38.732;-121.358;2023-04-01T04:16:13;2.88;;;2.67;;
49784;SDS011;35679;38.732;-121.358;2023-04-01T04:19:08;2.90;;;2.70;;
49784;SDS011;35679;38.732;-121.358;2023-04-01T04:21:57;3.08;;;2.80;;
49784;SDS011;35679;38.732;-121.358;2023-04-01T04:24:49;3.15;;;2.95;;
49784;SDS011;35679;38.732;-121.358;2023-04-01T04:27:39;2.72;;;2.53;;
49784;SDS011;35679;38.732;-121.358;2023-04-01T04:30:31;3.00;;;2.80;;
49784;SDS011;35679;38.732;-121.358;2023-04-01T04:33:23;3.13;;;2.90;;
49784;SDS011;35679;38.732;-121.358;2023-04-01T04:36:13;3.47;;;2.78;;
49784;SDS011;35679;38.732;-121.358;2023-04-01T04:39:03;3.40;;;3.10;;
49784;SDS011;35679;38.732;-121.358;2023-04-01T04:41:54;3.05;;;2.95;;
49784;SDS011;35679;38.732;-121.358;2023-04-01T04:44:43;2.90;;;2.70;;
49784;SDS011;35679;38.732;-121.358;2023-04-01T04:47:33;3.22;;;3.03;;
49784;SDS011;35679;38.732;-121.358;2023-04-01T04:50:23;3.30;;;3.10;;
49784;SDS011;35679;38.732;-121.358;2023-04-01T04:53:13;3.08;;;2.95;;
49784;SDS011;35679;38.732;-121.358;2023-04-01T04:56:04;3.17;;;2.90;;
49784;SDS011;35679;38.732;-121.358;2023-04-01T04:59:03;3.03;;;2.92;;
49784;SDS011;35679;38.732;-121.358;2023-04-01T05:02:01;3.55;;;3.00;;
49784;SDS011;35679;38.732;-121.358;2023-04-01T05:04:51;3.53;;;3.30;;
49784;SDS011;35679;38.732;-121.358;2023-04-01T05:07:40;3.47;;;3.17;;
49784;SDS011;35679;38.732;-121.358;2023-04-01T05:10:30;3.30;;;3.10;;
49784;SDS011;35679;38.732;-121.358;2023-04-01T05:13:19;3.00;;;2.80;;
49784;SDS011;35679;38.732;-121.358;2023-04-01T05:16:10;3.33;;;3.13;;
49784;SDS011;35679;38.732;-121.358;2023-04-01T05:19:02;3.22;;;3.03;;
49784;SDS011;35679;38.732;-121.358;2023-04-01T05:21:54;3.10;;;2.90;;
49784;SDS011;35679;38.732;-121.358;2023-04-01T05:24:43;3.38;;;3.28;;
49784;SDS011;35679;38.732;-121.358;2023-04-01T05:27:32;3.20;;;3.00;;
49784;SDS011;35679;38.732;-121.358;2023-04-01T05:30:22;3.90;;;3.70;;
49784;SDS011;35679;38.732;-121.358;2023-04-01T05:33:20;3.45;;;3.25;;
49784;SDS011;35679;38.732;-121.358;2023-04-01T05:36:13;3.00;;;2.90;;
49784;SDS011;35679;38.732;-121.358;2023-04-01T05:39:04;2.90;;;2.80;;
49784;SDS011;35679;38.732;-121.358;2023-04-01T05:41:54;3.38;;;3.22;;
49784;SDS011;35679;38.732;-121.358;2023-04-01T05:44:43;3.22;;;2.92;;
49784;SDS011;35679;38.732;-121.358;2023-04-01T05:47:58;3.13;;;3.00;;
49784;SDS011;35679;38.732;-121.358;2023-04-01T05:50:52;3.83;;;3.30;;
49784;SDS011;35679;38.732;-121.358;2023-04-01T05:53:41;3.70;;;3.38;;
49784;SDS011;35679;38.732;-121.358;2023-04-01T05:56:31;3.00;;;2.80;;
49784;SDS011;35679;38.732;-121.358;2023-04-01T05:59:21;3.10;;;2.90;;
49784;SDS011;35679;38.732;-121.358;2023-04-01T06:02:11;3.55;;;3.25;;
49784;SDS011;35679;38.732;-121.358;2023-04-01T06:08:05;3.45;;;3.25;;
49784;SDS011;35679;38.732;-121.358;2023-04-01T06:11:12;3.58;;;3.35;;
49784;SDS011;35679;38.732;-121.358;2023-04-01T06:39:37;3.80;;;3.50;;
49784;SDS011;35679;38.732;-121.358;2023-04-01T06:53:28;4.07;;;3.75;;
49784;SDS011;35679;38.732;-121.358;2023-04-01T06:56:32;3.85;;;3.55;;
49784;SDS011;35679;38.732;-121.358;2023-04-01T06:59:30;4.88;;;3.90;;
49784;SDS011;35679;38.732;-121.358;2023-04-01T07:02:24;4.75;;;3.85;;
49784;SDS011;35679;38.732;-121.358;2023-04-01T07:05:42;4.20;;;3.90;;
49784;SDS011;35679;38.732;-121.358;2023-04-01T07:08:34;4.97;;;4.07;;
49784;SDS011;35679;38.732;-121.358;2023-04-01T07:11:28;4.35;;;3.95;;
49784;SDS011;35679;38.732;-121.358;2023-04-01T07:14:39;3.90;;;3.60;;
49784;SDS011;35679;38.732;-121.358;2023-04-01T07:17:31;4.43;;;4.05;;
49784;SDS011;35679;38.732;-121.358;2023-04-01T07:20:35;4.82;;;3.92;;
49784;SDS011;35679;38.732;-121.358;2023-04-01T07:23:31;4.55;;;4.15;;
49784;SDS011;35679;38.732;-121.358;2023-04-01T07:26:45;3.95;;;3.65;;
49784;SDS011;35679;38.732;-121.358;2023-04-01T07:29:38;3.88;;;3.63;;
49784;SDS011;35679;38.732;-121.358;2023-04-01T07:32:44;3.97;;;3.58;;
49784;SDS011;35679;38.732;-121.358;2023-04-01T07:35:52;4.45;;;3.97;;
49784;SDS011;35679;38.732;-121.358;2023-04-01T07:49:39;5.15;;;4.10;;
49784;SDS011;35679;38.732;-121.358;2023-04-01T07:55:46;4.10;;;3.70;;
49784;SDS011;35679;38.732;-121.358;2023-04-01T08:05:40;4.82;;;4.15;;
49784;SDS011;35679;38.732;-121.358;2023-04-01T08:12:29;3.95;;;3.65;;
49784;SDS011;35679;38.732;-121.358;2023-04-01T08:15:31;4.53;;;4.13;;
49784;SDS011;35679;38.732;-121.358;2023-04-01T08:18:54;4.47;;;4.07;;
49784;SDS011;35679;38.732;-121.358;2023-04-01T08:22:40;4.15;;;3.85;;
49784;SDS011;35679;38.732;-121.358;2023-04-01T08:25:44;4.47;;;4.18;;
49784;SDS011;35679;38.732;-121.358;2023-04-01T08:29:04;4.15;;;3.85;;
49784;SDS011;35679;38.732;-121.358;2023-04-01T08:55:11;6.75;;;4.32;;
49784;SDS011;35679;38.732;-121.358;2023-04-01T08:58:19;4.65;;;4.22;;
49784;SDS011;35679;38.732;-121.358;2023-04-01T09:18:21;4.85;;;4.35;;
49784;SDS011;35679;38.732;-121.358;2023-04-01T09:24:26;4.85;;;4.45;;
49784;SDS011;35679;38.732;-121.358;2023-04-01T09:30:31;4.68;;;4.38;;
49784;SDS011;35679;38.732;-121.358;2023-04-01T09:39:45;4.60;;;4.30;;
49784;SDS011;35679;38.732;-121.358;2023-04-01T09:43:06;5.50;;;4.72;;
49784;SDS011;35679;38.732;-121.358;2023-04-01T09:49:49;5.15;;;4.75;;
49784;SDS011;35679;38.732;-121.358;2023-04-01T09:53:14;4.75;;;4.35;;
49784;SDS011;35679;38.732;-121.358;2023-04-01T09:59:58;5.20;;;4.63;;
49784;SDS011;35679;38.732;-121.358;2023-04-01T10:06:51;5.03;;;4.47;;
49784;SDS011;35679;38.732;-121.358;2023-04-01T10:38:10;4.95;;;4.50;;
49784;SDS011;35679;38.732;-121.358;2023-04-01T10:41:13;4.90;;;4.50;;
49784;SDS011;35679;38.732;-121.358;2023-04-01T10:44:50;7.18;;;5.10;;
49784;SDS011;35679;38.732;-121.358;2023-04-01T11:18:18;4.13;;;3.83;;
49784;SDS011;35679;38.732;-121.358;2023-04-01T11:28:06;4.25;;;3.85;;
49784;SDS011;35679;38.732;-121.358;2023-04-01T11:54:07;4.80;;;4.40;;
49784;SDS011;35679;38.732;-121.358;2023-04-01T12:03:54;4.75;;;4.45;;
49784;SDS011;35679;38.732;-121.358;2023-04-01T12:07:06;4.20;;;3.90;;
49784;SDS011;35679;38.732;-121.358;2023-04-01T12:30:01;3.90;;;3.58;;
49784;SDS011;35679;38.732;-121.358;2023-04-01T12:42:35;4.45;;;4.05;;
49784;SDS011;35679;38.732;-121.358;2023-04-01T12:45:44;4.30;;;4.00;;
49784;SDS011;35679;38.732;-121.358;2023-04-01T12:52:54;4.70;;;4.30;;
49784;SDS011;35679;38.732;-121.358;2023-04-01T12:55:35;4.60;;;4.13;;
49784;SDS011;35679;38.732;-121.358;2023-04-01T12:58:35;4.60;;;4.18;;
49784;SDS011;35679;38.732;-121.358;2023-04-01T13:21:03;8.80;;;4.47;;
49784;SDS011;35679;38.732;-121.358;2023-04-01T13:24:19;7.28;;;4.47;;
49784;SDS011;35679;38.732;-121.358;2023-04-01T13:27:34;5.32;;;3.83;;
49784;SDS011;35679;38.732;-121.358;2023-04-01T13:30:33;4.57;;;3.72;;
49784;SDS011;35679;38.732;-121.358;2023-04-01T13:33:42;5.75;;;4.10;;
49784;SDS011;35679;38.732;-121.358;2023-04-01T13:36:44;11.38;;;4.30;;
49784;SDS011;35679;38.732;-121.358;2023-04-01T13:42:40;8.18;;;4.30;;
49784;SDS011;35679;38.732;-121.358;2023-04-01T13:45:37;4.63;;;4.00;;
49784;SDS011;35679;38.732;-121.358;2023-04-01T14:04:00;5.65;;;3.55;;
49784;SDS011;35679;38.732;-121.358;2023-04-01T14:16:00;4.13;;;3.72;;
49784;SDS011;35679;38.732;-121.358;2023-04-01T14:22:31;4.35;;;3.85;;
49784;SDS011;35679;38.732;-121.358;2023-04-01T14:48:07;3.83;;;3.53;;
49784;SDS011;35679;38.732;-121.358;2023-04-01T14:51:13;4.00;;;3.70;;
49784;SDS011;35679;38.732;-121.358;2023-04-01T14:54:32;4.00;;;3.58;;
49784;SDS011;35679;38.732;-121.358;2023-04-01T14:57:30;3.55;;;3.28;;
49784;SDS011;35679;38.732;-121.358;2023-04-01T15:00:20;4.05;;;3.00;;
49784;SDS011;35679;38.732;-121.358;2023-04-01T15:03:21;4.18;;;3.63;;
49784;SDS011;35679;38.732;-121.358;2023-04-01T15:12:38;4.95;;;3.47;;
49784;SDS011;35679;38.732;-121.358;2023-04-01T15:25:39;3.85;;;3.55;;
49784;SDS011;35679;38.732;-121.358;2023-04-01T15:32:20;4.10;;;3.63;;
49784;SDS011;35679;38.732;-121.358;2023-04-01T15:35:38;3.72;;;3.50;;
49784;SDS011;35679;38.732;-121.358;2023-04-01T15:38:48;3.42;;;3.22;;
49784;SDS011;35679;38.732;-121.358;2023-04-01T15:42:36;4.55;;;4.07;;
49784;SDS011;35679;38.732;-121.358;2023-04-01T15:45:35;3.80;;;3.47;;
49784;SDS011;35679;38.732;-121.358;2023-04-01T16:04:32;3.83;;;3.53;;
49784;SDS011;35679;38.732;-121.358;2023-04-01T16:11:03;4.15;;;3.60;;
49784;SDS011;35679;38.732;-121.358;2023-04-01T16:14:11;5.35;;;4.07;;
49784;SDS011;35679;38.732;-121.358;2023-04-01T16:20:06;6.72;;;3.83;;
49784;SDS011;35679;38.732;-121.358;2023-04-01T16:23:18;3.95;;;3.55;;
49784;SDS011;35679;38.732;-121.358;2023-04-01T16:26:19;4.07;;;3.78;;
49784;SDS011;35679;38.732;-121.358;2023-04-01T16:47:58;4.35;;;4.05;;
49784;SDS011;35679;38.732;-121.358;2023-04-01T16:50:59;3.90;;;3.70;;
49784;SDS011;35679;38.732;-121.358;2023-04-01T16:57:18;4.10;;;3.80;;
49784;SDS011;35679;38.732;-121.358;2023-04-01T17:00:16;4.07;;;3.75;;
49784;SDS011;35679;38.732;-121.358;2023-04-01T17:06:19;3.80;;;3.50;;
49784;SDS011;35679;38.732;-121.358;2023-04-01T17:12:17;3.58;;;3.38;;
49784;SDS011;35679;38.732;-121.358;2023-04-01T17:15:46;3.83;;;3.45;;
49784;SDS011;35679;38.732;-121.358;2023-04-01T17:25:16;3.50;;;3.20;;
49784;SDS011;35679;38.732;-121.358;2023-04-01T17:28:31;3.63;;;3.33;;
49784;SDS011;35679;38.732;-121.358;2023-04-01T17:37:28;3.47;;;3.28;;
49784;SDS011;35679;38.732;-121.358;2023-04-01T17:44:44;3.22;;;3.00;;
49784;SDS011;35679;38.732;-121.358;2023-04-01T17:53:20;3.40;;;3.20;;
49784;SDS011;35679;38.732;-121.358;2023-04-01T18:03:13;3.50;;;3.30;;
49784;SDS011;35679;38.732;-121.358;2023-04-01T18:09:33;3.50;;;3.20;;
49784;SDS011;35679;38.732;-121.358;2023-04-01T18:12:32;3.95;;;3.30;;
49784;SDS011;35679;38.732;-121.358;2023-04-01T18:18:38;3.55;;;3.25;;
49784;SDS011;35679;38.732;-121.358;2023-04-01T18:24:42;3.75;;;3.45;;
49784;SDS011;35679;38.732;-121.358;2023-04-01T18:30:30;3.67;;;3.35;;
49784;SDS011;35679;38.732;-121.358;2023-04-01T18:39:42;3.10;;;2.90;;
49784;SDS011;35679;38.732;-121.358;2023-04-01T18:49:43;3.10;;;2.90;;
49784;SDS011;35679;38.732;-121.358;2023-04-01T18:52:41;3.35;;;3.08;;
49784;SDS011;35679;38.732;-121.358;2023-04-01T18:55:40;3.60;;;3.30;;
49784;SDS011;35679;38.732;-121.358;2023-04-01T18:58:52;3.03;;;2.80;;
49784;SDS011;35679;38.732;-121.358;2023-04-01T19:01:56;4.82;;;3.20;;
49784;SDS011;35679;38.732;-121.358;2023-04-01T19:04:57;3.45;;;3.17;;
49784;SDS011;35679;38.732;-121.358;2023-04-01T19:07:50;3.47;;;3.08;;
49784;SDS011;35679;38.732;-121.358;2023-04-01T19:10:47;3.25;;;3.05;;
49784;SDS011;35679;38.732;-121.358;2023-04-01T19:13:48;4.78;;;3.63;;
49784;SDS011;35679;38.732;-121.358;2023-04-01T19:20:09;3.22;;;3.03;;
49784;SDS011;35679;38.732;-121.358;2023-04-01T19:26:39;3.22;;;3.03;;
49784;SDS011;35679;38.732;-121.358;2023-04-01T19:29:50;3.10;;;2.90;;
49784;SDS011;35679;38.732;-121.358;2023-04-01T19:33:07;3.13;;;2.92;;
49784;SDS011;35679;38.732;-121.358;2023-04-01T19:39:46;3.10;;;2.90;;
49784;SDS011;35679;38.732;-121.358;2023-04-01T19:45:41;3.25;;;3.05;;
49784;SDS011;35679;38.732;-121.358;2023-04-01T19:48:51;3.50;;;2.90;;
49784;SDS011;35679;38.732;-121.358;2023-04-01T19:51:47;3.00;;;2.80;;
49784;SDS011;35679;38.732;-121.358;2023-04-01T19:57:54;3.17;;;2.90;;
49784;SDS011;35679;38.732;-121.358;2023-04-01T20:00:59;3.38;;;3.17;;
49784;SDS011;35679;38.732;-121.358;2023-04-01T20:03:55;3.10;;;3.00;;
49784;SDS011;35679;38.732;-121.358;2023-04-01T20:16:12;3.03;;;2.83;;
49784;SDS011;35679;38.732;-121.358;2023-04-01T20:19:03;3.17;;;2.97;;
49784;SDS011;35679;38.732;-121.358;2023-04-01T20:21:54;3.55;;;2.88;;
49784;SDS011;35679;38.732;-121.358;2023-04-01T20:24:47;3.25;;;3.05;;
49784;SDS011;35679;38.732;-121.358;2023-04-01T20:27:40;3.40;;;3.10;;
49784;SDS011;35679;38.732;-121.358;2023-04-01T20:37:18;3.15;;;2.95;;
49784;SDS011;35679;38.732;-121.358;2023-04-01T20:40:18;3.28;;;3.00;;
49784;SDS011;35679;38.732;-121.358;2023-04-01T20:46:36;3.20;;;3.03;;
49784;SDS011;35679;38.732;-121.358;2023-04-01T20:52:49;3.30;;;3.10;;
49784;SDS011;35679;38.732;-121.358;2023-04-01T21:08:49;3.47;;;3.20;;
49784;SDS011;35679;38.732;-121.358;2023-04-01T21:11:53;3.00;;;2.90;;
49784;SDS011;35679;38.732;-121.358;2023-04-01T21:21:41;2.70;;;2.60;;
49784;SDS011;35679;38.732;-121.358;2023-04-01T21:24:59;3.15;;;3.00;;
49784;SDS011;35679;38.732;-121.358;2023-04-01T21:28:12;3.00;;;2.80;;
49784;SDS011;35679;38.732;-121.358;2023-04-01T21:31:22;3.38;;;3.08;;
49784;SDS011;35679;38.732;-121.358;2023-04-01T21:49:28;3.42;;;3.13;;
49784;SDS011;35679;38.732;-121.358;2023-04-01T21:55:50;3.38;;;3.17;;
49784;SDS011;35679;38.732;-121.358;2023-04-01T22:02:43;3.00;;;2.80;;
49784;SDS011;35679;38.732;-121.358;2023-04-01T22:14:31;3.08;;;2.90;;
49784;SDS011;35679;38.732;-121.358;2023-04-01T22:17:25;3.25;;;3.03;;
49784;SDS011;35679;38.732;-121.358;2023-04-01T22:20:36;3.42;;;3.13;;
49784;SDS011;35679;38.732;-121.358;2023-04-01T22:23:47;3.38;;;3.17;;
49784;SDS011;35679;38.732;-121.358;2023-04-01T22:26:47;3.28;;;3.08;;
49784;SDS011;35679;38.732;-121.358;2023-04-01T22:33:05;3.00;;;2.80;;
49784;SDS011;35679;38.732;-121.358;2023-04-01T22:36:08;3.58;;;3.28;;
49784;SDS011;35679;38.732;-121.358;2023-04-01T22:42:24;3.17;;;2.92;;
49784;SDS011;35679;38.732;-121.358;2023-04-01T22:48:45;3.53;;;3.33;;
49784;SDS011;35679;38.732;-121.358;2023-04-01T22:51:50;2.92;;;2.83;;
49784;SDS011;35679;38.732;-121.358;2023-04-01T22:54:58;3.15;;;3.05;;
49784;SDS011;35679;38.732;-121.358;2023-04-01T22:57:52;3.08;;;2.88;;
49784;SDS011;35679;38.732;-121.358;2023-04-01T23:00:52;3.03;;;2.83;;
49784;SDS011;35679;38.732;-121.358;2023-04-01T23:03:46;2.88;;;2.78;;
49784;SDS011;35679;38.732;-121.358;2023-04-01T23:06:39;3.13;;;2.92;;
49784;SDS011;35679;38.732;-121.358;2023-04-01T23:09:41;3.10;;;2.90;;
49784;SDS011;35679;38.732;-121.358;2023-04-01T23:12:30;2.90;;;2.80;;
49784;SDS011;35679;38.732;-121.358;2023-04-01T23:15:22;3.00;;;2.80;;
49784;SDS011;35679;38.732;-121.358;2023-04-01T23:18:18;2.95;;;2.80;;
49784;SDS011;35679;38.732;-121.358;2023-04-01T23:24:25;2.75;;;2.63;;
49784;SDS011;35679;38.732;-121.358;2023-04-01T23:28:14;2.92;;;2.83;;
49784;SDS011;35679;38.732;-121.358;2023-04-01T23:33:30;3.40;;;3.10;;
49784;SDS011;35679;38.732;-121.358;2023-04-01T23:36:20;3.00;;;2.80;;
49784;SDS011;35679;38.732;-121.358;2023-04-01T23:45:18;2.95;;;2.85;;
49784;SDS011;35679;38.732;-121.358;2023-04-01T23:48:11;3.25;;;3.03;;
49784;SDS011;35679;38.732;-121.358;2023-04-01T23:51:10;2.83;;;2.72;;
49784;SDS011;35679;38.732;-121.358;2023-04-01T23:54:19;3.00;;;2.80;;
49784;SDS011;35679;38.732;-121.358;2023-04-01T23:57:26;2.92;;;2.80;;
